Tabellarische Übersicht vom Sonntag, den 29.05.2022

Oder anderes Datum wählen:






max 12,1°C 96,0% 9,8°C 1017,6hPa 11,0°C 21,6km/h (4Bft) 6,7km/h 349° (N) ∑3,6l/m² 120,000klx ∑94,1min
min 5,8°C 68,0% 4,1°C 1013,3hPa 4,0°C 0,0km/h (0Bft) 0,0km/h 0° (N) ∑3,6l/m² 0,000klx ∑94,1min
Ø 8,5°C 87,0% 6,5°C 1015,3hPa 8,0°C 6,8km/h (2Bft) 3,1km/h 226° (SW) ∑3,6l/m² 27,000klx ∑94,1min
Zeit Temperatur Luftfeuchte Taupunkt Luftdruck Windchill Windböen Windgeschwindigkeit Windrichtung Regen Helligkeit Regenzeit
13:30 12,1°C 80,0% 8,7°C 1013,3hPa 12,1°C 17,6km/h (3Bft) 6,0km/h 283° (W) 0,0l/m² 105,068klx 0,0min
13:25 11,9°C 80,7% 8,7°C 1013,3hPa 11,9°C 13,7km/h (3Bft) 4,7km/h 269° (W) 0,0l/m² 105,277klx 0,0min
13:20 11,9°C 81,0% 8,7°C 1013,4hPa 11,9°C 13,0km/h (3Bft) 6,0km/h 243° (SW) 0,0l/m² 89,253klx 0,0min
13:15 11,5°C 81,0% 8,4°C 1013,5hPa 11,5°C 12,2km/h (3Bft) 5,1km/h 262° (W) 0,0l/m² 80,061klx 0,0min
13:10 11,4°C 84,7% 8,9°C 1013,6hPa 11,4°C 9,7km/h (2Bft) 4,5km/h 260° (W) 0,0l/m² 67,182klx 0,0min
13:05 11,4°C 82,0% 8,4°C 1013,6hPa 11,4°C 11,5km/h (2Bft) 4,1km/h 280° (W) 0,0l/m² 40,957klx 1,9min
13:00 11,6°C 78,7% 8,0°C 1013,6hPa 11,6°C 9,0km/h (2Bft) 4,0km/h 271° (W) 0,0l/m² 30,125klx 1,7min
12:55 11,7°C 76,7% 7,7°C 1013,6hPa 11,7°C 8,3km/h (2Bft) 3,7km/h 275° (W) 0,0l/m² 54,084klx 0,0min
12:50 11,8°C 81,5% 8,7°C 1013,7hPa 11,8°C 15,1km/h (3Bft) 5,7km/h 312° (NW) 0,0l/m² 77,340klx 0,0min
12:45 11,8°C 80,7% 8,6°C 1013,7hPa 11,8°C 10,8km/h (2Bft) 5,0km/h 295° (NW) 0,0l/m² 80,194klx 0,0min
12:40 11,8°C 79,0% 8,3°C 1013,7hPa 11,7°C 15,5km/h (3Bft) 6,5km/h 271° (W) 0,0l/m² 120,484klx 0,0min
12:35 11,9°C 83,5% 9,1°C 1013,7hPa 11,9°C 13,3km/h (3Bft) 6,3km/h 290° (W) 0,0l/m² 113,752klx 0,0min
12:30 11,8°C 87,5% 9,8°C 1013,8hPa 11,8°C 7,2km/h (2Bft) 3,5km/h 257° (W) 0,0l/m² 101,769klx 0,0min
12:25 11,3°C 88,5% 9,4°C 1013,8hPa 11,3°C 7,9km/h (2Bft) 3,2km/h 267° (W) 0,0l/m² 103,448klx 0,0min
12:20 11,0°C 89,7% 9,4°C 1013,8hPa 11,0°C 6,1km/h (2Bft) 3,4km/h 236° (SW) 0,0l/m² 71,806klx 0,0min
12:15 11,0°C 90,3% 9,5°C 1013,9hPa 11,0°C 7,6km/h (2Bft) 3,4km/h 341° (N) 0,0l/m² 74,008klx 0,0min
12:10 10,7°C 89,0% 9,0°C 1013,9hPa 10,7°C 9,4km/h (2Bft) 4,3km/h 348° (N) 0,0l/m² 55,101klx 0,0min
12:05 10,9°C 90,0% 9,3°C 1014,0hPa 10,9°C 13,3km/h (3Bft) 5,7km/h 337° (NW) 0,0l/m² 45,271klx 1,0min
12:00 10,7°C 93,0% 9,6°C 1014,0hPa 10,7°C 9,4km/h (2Bft) 3,7km/h 334° (NW) 0,0l/m² 49,514klx 0,0min
11:55 10,5°C 88,5% 8,6°C 1014,1hPa 10,5°C 5,4km/h (1Bft) 2,7km/h 286° (W) 0,0l/m² 44,853klx 0,0min
11:50 10,6°C 93,7% 9,6°C 1014,1hPa 10,6°C 6,1km/h (2Bft) 2,9km/h 320° (NW) 0,0l/m² 42,309klx 0,0min
11:45 10,3°C 94,5% 9,5°C 1014,1hPa 10,3°C 6,8km/h (2Bft) 3,0km/h 323° (NW) 0,0l/m² 75,563klx 0,0min
11:40 9,9°C 92,5% 8,7°C 1014,1hPa 9,9°C 6,1km/h (2Bft) 3,6km/h 320° (NW) 0,0l/m² 64,374klx 0,0min
11:35 9,9°C 94,5% 9,1°C 1014,1hPa 9,9°C 6,1km/h (2Bft) 3,3km/h 328° (NW) 0,0l/m² 43,884klx 5,0min
11:30 9,9°C 91,0% 8,5°C 1014,2hPa 9,9°C 11,9km/h (2Bft) 5,7km/h 0° (N) 0,1l/m² 27,248klx 5,0min
11:25 10,4°C 84,0% 7,8°C 1014,3hPa 10,4°C 14,0km/h (3Bft) 6,1km/h 325° (NW) 1,5l/m² 12,172klx 5,0min
11:20 10,8°C 84,0% 8,2°C 1014,2hPa 10,8°C 21,6km/h (4Bft) 4,8km/h 310° (NW) 0,7l/m² 8,980klx 5,0min
11:15 11,1°C 84,0% 8,5°C 1014,1hPa 11,1°C 9,7km/h (2Bft) 4,7km/h 251° (W) 0,1l/m² 12,051klx 4,5min
11:10 11,2°C 84,5% 8,6°C 1014,0hPa 11,2°C 11,9km/h (2Bft) 4,9km/h 218° (SW) 0,0l/m² 24,027klx 0,0min
11:05 11,1°C 85,0% 8,7°C 1014,1hPa 11,1°C 10,4km/h (2Bft) 4,7km/h 231° (SW) 0,0l/m² 37,642klx 0,0min
11:00 10,9°C 82,0% 8,0°C 1014,2hPa 10,9°C 10,8km/h (2Bft) 4,2km/h 285° (W) 0,0l/m² 39,806klx 0,0min
10:55 11,2°C 79,5% 7,8°C 1014,2hPa 11,2°C 10,8km/h (2Bft) 4,1km/h 285° (W) 0,0l/m² 29,700klx 0,0min
10:50 11,6°C 81,0% 8,4°C 1014,2hPa 11,6°C 10,1km/h (2Bft) 4,0km/h 280° (W) 0,0l/m² 37,556klx 0,0min
10:45 11,6°C 85,5% 9,2°C 1014,2hPa 11,6°C 10,8km/h (2Bft) 4,1km/h 237° (SW) 0,0l/m² 67,023klx 0,0min
10:40 10,8°C 89,0% 9,1°C 1014,3hPa 10,8°C 8,3km/h (2Bft) 4,1km/h 249° (W) 0,0l/m² 85,667klx 0,0min
10:35 10,1°C 90,0% 8,5°C 1014,3hPa 10,1°C 9,4km/h (2Bft) 3,6km/h 241° (SW) 0,0l/m² 36,306klx 0,0min
10:30 10,1°C 88,4% 8,2°C 1014,4hPa 10,1°C 6,1km/h (2Bft) 2,5km/h 266° (W) 0,0l/m² 19,181klx 0,0min
10:25 10,2°C 90,7% 8,7°C 1014,4hPa 10,2°C 8,3km/h (2Bft) 4,3km/h 253° (W) 0,0l/m² 10,471klx 1,3min
10:20 10,3°C 90,3% 8,8°C 1014,4hPa 10,3°C 5,0km/h (1Bft) 2,8km/h 187° (S) 0,0l/m² 11,139klx 0,0min
10:15 10,2°C 90,0% 8,6°C 1014,4hPa 10,2°C 6,1km/h (2Bft) 2,7km/h 229° (SW) 0,0l/m² 19,111klx 0,0min
10:10 10,1°C 90,0% 8,5°C 1014,5hPa 10,1°C 5,0km/h (1Bft) 2,2km/h 260° (W) 0,0l/m² 28,520klx 0,0min
10:05 10,1°C 90,0% 8,5°C 1014,5hPa 10,1°C 9,4km/h (2Bft) 3,4km/h 261° (W) 0,0l/m² 40,607klx 0,0min
10:00 9,9°C 90,3% 8,4°C 1014,5hPa 9,9°C 7,2km/h (2Bft) 3,4km/h 261° (W) 0,0l/m² 36,143klx 0,0min
09:55 9,8°C 91,0% 8,4°C 1014,6hPa 9,8°C 5,8km/h (1Bft) 2,8km/h 287° (W) 0,0l/m² 35,472klx 0,0min
09:50 9,8°C 91,5% 8,4°C 1014,6hPa 9,8°C 6,5km/h (2Bft) 3,3km/h 263° (W) 0,0l/m² 23,204klx 0,0min
09:45 9,7°C 94,0% 8,8°C 1014,6hPa 9,7°C 6,1km/h (2Bft) 2,8km/h 291° (W) 0,0l/m² 30,969klx 0,0min
09:40 9,5°C 93,3% 8,5°C 1014,6hPa 9,5°C 9,4km/h (2Bft) 4,0km/h 302° (NW) 0,0l/m² 27,909klx 1,8min
09:35 9,4°C 93,0% 8,3°C 1014,6hPa 9,4°C 6,1km/h (2Bft) 3,1km/h 271° (W) 0,0l/m² 16,199klx 1,4min
09:30 9,4°C 91,5% 8,1°C 1014,6hPa 9,4°C 11,2km/h (2Bft) 5,0km/h 254° (W) 0,0l/m² 18,206klx 0,0min
09:25 9,4°C 92,7% 8,3°C 1014,7hPa 9,4°C 6,1km/h (2Bft) 3,0km/h 277° (W) 0,0l/m² 16,335klx 0,0min
09:20 9,5°C 93,0% 8,5°C 1014,7hPa 9,5°C 7,9km/h (2Bft) 4,0km/h 279° (W) 0,0l/m² 18,059klx 0,0min
09:15 9,7°C 93,5% 8,7°C 1014,6hPa 9,7°C 8,3km/h (2Bft) 3,8km/h 294° (NW) 0,0l/m² 12,059klx 0,0min
09:10 9,8°C 94,5% 8,9°C 1014,6hPa 9,8°C 6,8km/h (2Bft) 3,3km/h 208° (SW) 0,0l/m² 24,426klx 0,0min
09:05 9,4°C 94,0% 8,5°C 1014,6hPa 9,4°C 10,1km/h (2Bft) 4,7km/h 225° (SW) 0,0l/m² 43,461klx 0,0min
09:00 9,2°C 92,7% 8,0°C 1014,6hPa 9,2°C 10,1km/h (2Bft) 5,0km/h 195° (S) 0,0l/m² 30,949klx 0,0min
08:55 9,1°C 95,0% 8,3°C 1014,7hPa 9,1°C 7,6km/h (2Bft) 3,5km/h 227° (SW) 0,0l/m² 23,393klx 0,0min
08:50 8,9°C 94,7% 8,1°C 1014,7hPa 8,9°C 6,8km/h (2Bft) 3,5km/h 236° (SW) 0,0l/m² 22,034klx 0,0min
08:45 8,9°C 96,5% 8,3°C 1014,8hPa 8,9°C 7,6km/h (2Bft) 3,2km/h 216° (SW) 0,0l/m² 21,853klx 0,0min
08:40 8,7°C 96,5% 8,2°C 1014,8hPa 8,7°C 8,6km/h (2Bft) 3,8km/h 241° (SW) 0,0l/m² 24,870klx 0,0min
08:35 8,5°C 95,7% 7,8°C 1014,8hPa 8,5°C 8,3km/h (2Bft) 3,8km/h 215° (SW) 0,0l/m² 23,358klx 0,0min
08:30 8,3°C 95,5% 7,6°C 1014,8hPa 8,3°C 7,2km/h (2Bft) 3,2km/h 237° (SW) 0,0l/m² 17,233klx 0,0min
08:25 8,3°C 95,3% 7,6°C 1014,8hPa 8,3°C 5,4km/h (1Bft) 3,1km/h 258° (W) 0,0l/m² 16,704klx 0,0min
08:20 8,2°C 95,7% 7,5°C 1014,8hPa 8,2°C 8,3km/h (2Bft) 3,2km/h 234° (SW) 0,0l/m² 18,502klx 0,0min
08:15 8,1°C 96,0% 7,5°C 1014,8hPa 8,1°C 7,2km/h (2Bft) 3,1km/h 221° (SW) 0,0l/m² 16,454klx 0,0min
08:10 8,0°C 96,0% 7,4°C 1014,8hPa 8,0°C 7,6km/h (2Bft) 3,5km/h 232° (SW) 0,0l/m² 16,710klx 0,5min
08:05 7,9°C 96,0% 7,3°C 1014,8hPa 7,9°C 5,8km/h (1Bft) 2,6km/h 256° (W) 0,0l/m² 11,667klx 5,0min
08:00 7,8°C 96,0% 7,2°C 1014,8hPa 7,8°C 4,7km/h (1Bft) 2,5km/h 226° (SW) 0,0l/m² 9,297klx 5,0min
07:55 7,8°C 96,0% 7,2°C 1014,8hPa 7,8°C 8,3km/h (2Bft) 3,9km/h 228° (SW) 0,0l/m² 7,548klx 5,0min
07:50 7,7°C 94,5% 6,8°C 1014,8hPa 7,7°C 5,4km/h (1Bft) 2,7km/h 233° (SW) 0,0l/m² 6,644klx 5,0min
07:45 7,7°C 94,5% 6,8°C 1014,8hPa 7,7°C 2,9km/h (1Bft) 1,2km/h 282° (W) 0,1l/m² 6,282klx 5,0min
07:40 7,7°C 95,0% 6,9°C 1014,9hPa 7,7°C 4,3km/h (1Bft) 2,0km/h 233° (SW) 0,1l/m² 5,571klx 5,0min
07:35 7,6°C 94,5% 6,8°C 1014,8hPa 7,6°C 4,7km/h (1Bft) 2,6km/h 168° (S) 0,1l/m² 5,828klx 5,0min
07:30 7,6°C 94,5% 6,8°C 1014,9hPa 7,6°C 6,5km/h (2Bft) 3,1km/h 193° (S) 0,1l/m² 4,922klx 5,0min
07:25 7,9°C 89,0% 6,2°C 1014,9hPa 7,9°C 6,1km/h (2Bft) 2,6km/h 220° (SW) 0,3l/m² 3,328klx 5,0min
07:20 7,9°C 89,0% 6,2°C 1014,9hPa 7,9°C 4,3km/h (1Bft) 2,4km/h 233° (SW) 0,5l/m² 2,707klx 5,0min
07:15 7,9°C 90,0% 6,4°C 1014,9hPa 7,9°C 4,7km/h (1Bft) 2,3km/h 264° (W) 0,0l/m² 1,675klx 4,3min
07:10 7,9°C 90,0% 6,3°C 1014,9hPa 7,9°C 4,7km/h (1Bft) 2,0km/h 220° (SW) 0,0l/m² 3,746klx 0,9min
07:05 7,8°C 89,0% 6,1°C 1014,9hPa 7,8°C 7,2km/h (2Bft) 2,8km/h 206° (SW) 0,0l/m² 4,979klx 3,8min
07:00 7,7°C 90,0% 6,1°C 1015,0hPa 7,7°C 6,5km/h (2Bft) 3,1km/h 212° (SW) 0,0l/m² 4,174klx 1,1min
06:55 7,6°C 90,3% 6,1°C 1015,0hPa 7,6°C 5,8km/h (1Bft) 3,3km/h 236° (SW) 0,0l/m² 4,555klx 0,0min
06:50 7,5°C 90,7% 6,1°C 1015,0hPa 7,5°C 7,6km/h (2Bft) 3,8km/h 197° (S) 0,0l/m² 4,736klx 0,0min
06:45 7,4°C 91,0% 6,0°C 1015,0hPa 7,4°C 7,9km/h (2Bft) 3,6km/h 176° (S) 0,0l/m² 3,988klx 0,0min
06:40 7,3°C 92,0% 6,1°C 1015,0hPa 7,3°C 3,2km/h (1Bft) 1,7km/h 184° (S) 0,0l/m² 3,533klx 0,0min
06:35 7,2°C 92,0% 5,9°C 1015,0hPa 7,2°C 4,0km/h (1Bft) 1,7km/h 153° (SO) 0,0l/m² 3,334klx 0,0min
06:30 7,0°C 92,0% 5,8°C 1015,1hPa 7,0°C 5,0km/h (1Bft) 2,5km/h 147° (SO) 0,0l/m² 3,085klx 0,0min
06:25 7,0°C 92,0% 5,8°C 1015,1hPa 7,0°C 5,4km/h (1Bft) 2,8km/h 136° (SO) 0,0l/m² 3,295klx 0,0min
06:20 6,8°C 92,0% 5,6°C 1015,2hPa 6,8°C 4,3km/h (1Bft) 2,3km/h 128° (SO) 0,0l/m² 3,090klx 0,0min
06:15 6,7°C 92,0% 5,5°C 1015,2hPa 6,7°C 5,8km/h (1Bft) 2,6km/h 113° (SO) 0,0l/m² 2,713klx 0,0min
06:10 6,6°C 92,0% 5,4°C 1015,2hPa 6,6°C 5,8km/h (1Bft) 2,6km/h 155° (SO) 0,0l/m² 2,482klx 0,0min
06:05 6,6°C 92,0% 5,4°C 1015,3hPa 6,6°C 4,7km/h (1Bft) 2,5km/h 152° (SO) 0,0l/m² 2,139klx 0,0min
06:00 6,6°C 91,7% 5,3°C 1015,3hPa 6,6°C 5,4km/h (1Bft) 3,3km/h 161° (S) 0,0l/m² 1,550klx 0,0min
05:55 6,6°C 92,0% 5,4°C 1015,3hPa 6,6°C 5,0km/h (1Bft) 2,8km/h 143° (SO) 0,0l/m² 1,095klx 0,0min
05:50 6,5°C 92,3% 5,3°C 1015,4hPa 6,5°C 5,0km/h (1Bft) 2,8km/h 158° (S) 0,0l/m² 1,213klx 0,0min
05:45 6,4°C 92,0% 5,2°C 1015,4hPa 6,4°C 6,5km/h (2Bft) 3,5km/h 160° (S) 0,0l/m² 0,813klx 0,0min
05:40 6,1°C 93,0% 5,1°C 1015,4hPa 6,1°C 5,4km/h (1Bft) 2,6km/h 173° (S) 0,0l/m² 0,764klx 0,0min
05:35 6,1°C 93,0% 5,1°C 1015,4hPa 6,1°C 4,3km/h (1Bft) 2,1km/h 134° (SO) 0,0l/m² 0,555klx 0,0min
05:30 6,1°C 92,0% 4,9°C 1015,4hPa 6,1°C 6,5km/h (2Bft) 2,7km/h 135° (SO) 0,0l/m² 0,535klx 0,0min
05:25 6,1°C 92,0% 4,9°C 1015,4hPa 6,1°C 6,8km/h (2Bft) 3,5km/h 153° (SO) 0,0l/m² 0,414klx 0,0min
05:20 5,9°C 92,0% 4,7°C 1015,4hPa 5,9°C 5,4km/h (1Bft) 2,9km/h 149° (SO) 0,0l/m² 0,283klx 0,0min
05:15 5,9°C 93,0% 4,9°C 1015,4hPa 5,9°C 6,8km/h (2Bft) 4,0km/h 166° (S) 0,0l/m² 0,175klx 0,0min
05:10 5,8°C 92,5% 4,7°C 1015,4hPa 5,8°C 5,4km/h (1Bft) 3,1km/h 174° (S) 0,0l/m² 0,116klx 0,0min
05:05 5,8°C 92,5% 4,7°C 1015,4hPa 5,8°C 4,7km/h (1Bft) 2,4km/h 165° (S) 0,0l/m² 0,068klx 0,0min
05:00 5,8°C 92,0% 4,6°C 1015,4hPa 5,8°C 5,8km/h (1Bft) 3,0km/h 142° (SO) 0,0l/m² 0,037klx 0,0min
04:55 5,8°C 92,0% 4,6°C 1015,4hPa 5,8°C 6,1km/h (2Bft) 2,9km/h 144° (SO) 0,0l/m² 0,019klx 0,0min
04:50 5,8°C 92,0% 4,6°C 1015,5hPa 5,8°C 4,0km/h (1Bft) 2,2km/h 130° (SO) 0,0l/m² 0,010klx 0,0min
04:45 5,9°C 92,0% 4,7°C 1015,5hPa 5,9°C 5,0km/h (1Bft) 3,1km/h 152° (SO) 0,0l/m² 0,005klx 0,0min
04:40 5,9°C 91,0% 4,5°C 1015,6hPa 5,9°C 4,3km/h (1Bft) 1,9km/h 167° (S) 0,0l/m² 0,003klx 0,0min
04:35 6,0°C 91,0% 4,6°C 1015,6hPa 6,0°C 5,0km/h (1Bft) 2,4km/h 178° (S) 0,0l/m² 0,002klx 0,0min
04:30 6,0°C 91,0% 4,6°C 1015,7hPa 6,0°C 4,0km/h (1Bft) 2,4km/h 170° (S) 0,0l/m² 0,001klx 0,0min
04:25 6,0°C 91,0% 4,6°C 1015,7hPa 6,0°C 5,0km/h (1Bft) 2,9km/h 155° (SO) 0,0l/m² 0,001klx 0,0min
04:20 6,1°C 91,0% 4,7°C 1015,7hPa 6,1°C 6,1km/h (2Bft) 3,3km/h 144° (SO) 0,0l/m² 0,000klx 0,0min
04:15 6,1°C 91,0% 4,7°C 1015,7hPa 6,1°C 5,0km/h (1Bft) 2,3km/h 133° (SO) 0,0l/m² 0,000klx 0,0min
04:10 6,3°C 90,0% 4,8°C 1015,7hPa 6,3°C 3,6km/h (1Bft) 1,9km/h 137° (SO) 0,0l/m² 0,000klx 0,0min
04:05 6,3°C 90,0% 4,8°C 1015,8hPa 6,3°C 5,8km/h (1Bft) 3,0km/h 148° (SO) 0,0l/m² 0,000klx 0,0min
04:00 6,3°C 90,0% 4,8°C 1015,8hPa 6,3°C 7,6km/h (2Bft) 3,9km/h 152° (SO) 0,0l/m² 0,000klx 0,0min
03:55 6,3°C 90,0% 4,8°C 1015,9hPa 6,3°C 5,8km/h (1Bft) 2,5km/h 156° (SO) 0,0l/m² 0,000klx 0,0min
03:50 6,4°C 90,0% 4,9°C 1015,9hPa 6,4°C 4,7km/h (1Bft) 2,3km/h 144° (SO) 0,0l/m² 0,000klx 0,0min
03:45 6,4°C 89,0% 4,7°C 1016,0hPa 6,4°C 3,2km/h (1Bft) 1,5km/h 166° (S) 0,0l/m² 0,000klx 0,0min
03:40 6,5°C 89,0% 4,8°C 1016,0hPa 6,5°C 5,4km/h (1Bft) 2,6km/h 133° (SO) 0,0l/m² 0,000klx 0,0min
03:35 6,6°C 88,0% 4,7°C 1016,0hPa 6,6°C 4,3km/h (1Bft) 2,1km/h 135° (SO) 0,0l/m² 0,000klx 0,0min
03:30 6,6°C 88,5% 4,8°C 1016,0hPa 6,6°C 4,0km/h (1Bft) 2,1km/h 133° (SO) 0,0l/m² 0,000klx 0,0min
03:25 6,6°C 88,0% 4,8°C 1016,0hPa 6,6°C 3,6km/h (1Bft) 1,7km/h 136° (SO) 0,0l/m² 0,000klx 0,0min
03:20 6,7°C 88,0% 4,9°C 1016,1hPa 6,7°C 4,0km/h (1Bft) 2,1km/h 137° (SO) 0,0l/m² 0,000klx 0,0min
03:15 6,9°C 87,0% 4,9°C 1016,0hPa 6,9°C 4,0km/h (1Bft) 2,1km/h 136° (SO) 0,0l/m² 0,000klx 0,0min
03:10 7,0°C 87,0% 5,0°C 1016,1hPa 7,0°C 4,0km/h (1Bft) 2,0km/h 138° (SO) 0,0l/m² 0,000klx 0,0min
03:05 7,0°C 87,0% 5,0°C 1016,2hPa 7,0°C 4,3km/h (1Bft) 2,2km/h 148° (SO) 0,0l/m² 0,000klx 0,0min
03:00 6,9°C 87,0% 4,9°C 1016,2hPa 6,9°C 3,6km/h (1Bft) 1,8km/h 144° (SO) 0,0l/m² 0,000klx 0,0min
02:55 7,1°C 85,5% 4,8°C 1016,2hPa 7,1°C 4,0km/h (1Bft) 2,0km/h 145° (SO) 0,0l/m² 0,000klx 0,0min
02:50 7,1°C 85,5% 4,8°C 1016,3hPa 7,1°C 2,2km/h (1Bft) 1,1km/h 165° (S) 0,0l/m² 0,000klx 0,0min
02:45 7,1°C 85,0% 4,8°C 1016,3hPa 7,1°C 3,2km/h (1Bft) 1,8km/h 138° (SO) 0,0l/m² 0,000klx 0,0min
02:40 7,2°C 84,0% 4,7°C 1016,4hPa 7,2°C 4,3km/h (1Bft) 2,5km/h 141° (SO) 0,0l/m² 0,000klx 0,0min
02:35 7,3°C 84,0% 4,8°C 1016,3hPa 7,3°C 3,2km/h (1Bft) 1,8km/h 135° (SO) 0,0l/m² 0,000klx 0,0min
02:30 7,3°C 83,0% 4,6°C 1016,4hPa 7,3°C 3,2km/h (1Bft) 1,7km/h 137° (SO) 0,0l/m² 0,000klx 0,0min
02:25 7,3°C 83,0% 4,6°C 1016,4hPa 7,3°C 4,3km/h (1Bft) 2,1km/h 137° (SO) 0,0l/m² 0,000klx 0,0min
02:20 7,5°C 83,0% 4,7°C 1016,4hPa 7,5°C 2,9km/h (1Bft) 1,3km/h 224° (SW) 0,0l/m² 0,000klx 0,0min
02:15 7,5°C 82,0% 4,6°C 1016,5hPa 7,5°C 0,0km/h (0Bft) 0,0km/h - 0,0l/m² 0,000klx 0,0min
02:10 7,5°C 82,3% 4,7°C 1016,5hPa 7,5°C 0,7km/h (0Bft) 0,7km/h 128° (SO) 0,0l/m² 0,000klx 0,0min
02:05 7,5°C 83,0% 4,8°C 1016,6hPa 7,5°C 2,2km/h (1Bft) 1,0km/h 231° (SW) 0,0l/m² 0,000klx 0,0min
02:00 7,6°C 82,0% 4,7°C 1016,6hPa 7,6°C 2,5km/h (1Bft) 1,2km/h 255° (W) 0,0l/m² 0,000klx 0,0min
01:55 7,8°C 81,5% 4,8°C 1016,6hPa 7,8°C 1,1km/h (0Bft) 0,9km/h 230° (SW) 0,0l/m² 0,000klx 0,0min
01:50 7,7°C 80,5% 4,6°C 1016,7hPa 7,7°C 0,0km/h (0Bft) 0,0km/h - 0,0l/m² 0,000klx 0,0min
01:45 7,9°C 80,0% 4,7°C 1016,8hPa 7,9°C 2,5km/h (1Bft) 1,1km/h 303° (NW) 0,0l/m² 0,000klx 0,0min
01:40 8,0°C 80,0% 4,7°C 1016,8hPa 8,0°C 3,2km/h (1Bft) 1,5km/h 308° (NW) 0,0l/m² 0,000klx 0,0min
01:35 8,1°C 76,0% 4,1°C 1016,9hPa 8,1°C 3,6km/h (1Bft) 1,5km/h 314° (NW) 0,0l/m² 0,000klx 0,0min
01:30 8,2°C 76,0% 4,2°C 1017,0hPa 8,2°C 4,7km/h (1Bft) 2,2km/h 318° (NW) 0,0l/m² 0,000klx 0,0min
01:25 8,3°C 76,0% 4,3°C 1017,0hPa 8,3°C 4,0km/h (1Bft) 1,9km/h 339° (N) 0,0l/m² 0,000klx 0,0min
01:20 8,4°C 75,0% 4,2°C 1017,1hPa 8,4°C 6,1km/h (2Bft) 2,5km/h 323° (NW) 0,0l/m² 0,000klx 0,0min
01:15 8,4°C 75,7% 4,4°C 1017,1hPa 8,4°C 6,1km/h (2Bft) 2,7km/h 320° (NW) 0,0l/m² 0,000klx 0,0min
01:10 8,6°C 75,5% 4,5°C 1017,2hPa 8,6°C 7,2km/h (2Bft) 2,7km/h 331° (NW) 0,0l/m² 0,000klx 0,0min
01:05 8,7°C 74,3% 4,4°C 1017,2hPa 8,7°C 4,0km/h (1Bft) 1,8km/h 311° (NW) 0,0l/m² 0,000klx 0,0min
01:00 8,9°C 73,5% 4,4°C 1017,3hPa 8,9°C 4,3km/h (1Bft) 2,7km/h 316° (NW) 0,0l/m² 0,000klx 0,0min
00:55 9,0°C 72,7% 4,4°C 1017,3hPa 9,0°C 5,4km/h (1Bft) 3,0km/h 315° (NW) 0,0l/m² 0,000klx 0,0min
00:50 9,1°C 72,0% 4,3°C 1017,3hPa 9,1°C 8,3km/h (2Bft) 3,8km/h 329° (NW) 0,0l/m² 0,000klx 0,0min
00:45 9,3°C 72,0% 4,5°C 1017,4hPa 9,3°C 10,8km/h (2Bft) 3,7km/h 349° (N) 0,0l/m² 0,000klx 0,0min
00:40 9,5°C 72,0% 4,7°C 1017,4hPa 9,5°C 5,8km/h (1Bft) 2,6km/h 345° (N) 0,0l/m² 0,000klx 0,0min
00:35 9,6°C 71,3% 4,7°C 1017,4hPa 9,6°C 8,6km/h (2Bft) 4,5km/h 330° (NW) 0,0l/m² 0,000klx 0,0min
00:30 9,8°C 71,0% 4,8°C 1017,4hPa 9,8°C 9,0km/h (2Bft) 4,5km/h 330° (NW) 0,0l/m² 0,000klx 0,0min
00:25 9,8°C 70,3% 4,7°C 1017,4hPa 9,8°C 7,6km/h (2Bft) 3,4km/h 318° (NW) 0,0l/m² 0,000klx 0,0min
00:20 9,9°C 70,5% 4,8°C 1017,5hPa 9,9°C 10,4km/h (2Bft) 4,8km/h 324° (NW) 0,0l/m² 0,000klx 0,0min
00:15 9,9°C 70,5% 4,8°C 1017,5hPa 9,7°C 12,2km/h (3Bft) 6,7km/h 325° (NW) 0,0l/m² 0,000klx 0,0min
00:10 9,9°C 69,0% 4,4°C 1017,5hPa 9,9°C 14,8km/h (3Bft) 6,2km/h 336° (NW) 0,0l/m² 0,000klx 0,0min
00:05 9,7°C 70,0% 4,5°C 1017,6hPa 9,7°C 12,2km/h (3Bft) 5,8km/h 332° (NW) 0,0l/m² 0,000klx 0,0min
00:00 9,8°C 68,0% 4,1°C 1017,6hPa 9,8°C 10,1km/h (2Bft) 4,7km/h 336° (NW) 0,0l/m² 0,000klx 0,0min

Aktuelle Wetterdaten

29.05.2022 13:30 Uhr